PWSweather.com
Personal Weather Stations
Station Observations
BREAKEY01
Lévis, Breakeyville, QC G6z 7G7

LévisBreakeyville, QC G6z 7G7

Lat: 46.681, Lon: -71.224

Elevation: 328

Station Type: Davis Vantage Pro2

http://www.meteobreakey.com

Latest ConditionsUpdated 11:42:03 AM EDT Tuesday, May 24, 2016
Currently Today's Max Today's Min Today's Average
Temperature 78.4°F25.8°C 78.4°F25.8°C 44.8°F7.1°C 55.8°F13.2°C
Dew Point 45.3°F7.4°C 52.0°F11.1°C 41.4°F5.2°C 44.7°F7.1°C
Winds 0.9 mph NNE1.4 kmh NNE 4.0 mph SE6.4 kmh SE - 0.9 mph 1.4 kmh
Wind Gusts 4.0 mph6.4 kmh 6.0 mph9.7 kmh - -
Humidity 31% 89% 31% 69%
Pressure 29.89 in1012.2 mb 29.94 in1013.9 mb 29.88 in1011.9 mb -
Hour Temp Dew Point Humidity Winds Wind Gusts Pressure Precip Precip Rate Daily Precip Total
11:42 AM 78.4°F25.8°C 45.3°F7.4°C 31% 0.9 mph NNE1.4 kmh NNE 4.0 mph6.4 kmh 29.89 in1012.2 mb - 0.00 in0.0 mm 0.00 in0.0 mm
11:37 AM 78.3°F25.7°C 48.4°F9.1°C 35% 2.0 mph N3.2 kmh N 0.9 mph1.4 kmh 29.88 in1011.9 mb - 0.00 in0.0 mm 0.00 in0.0 mm
11:32 AM 78.3°F25.7°C 48.4°F9.1°C 35% 2.0 mph NNW3.2 kmh NNW 2.0 mph3.2 kmh 29.89 in1012.2 mb - 0.00 in0.0 mm 0.00 in0.0 mm
11:27 AM 78.1°F25.6°C 48.2°F9.0°C 35% 2.0 mph N3.2 kmh N 4.0 mph6.4 kmh 29.89 in1012.2 mb - 0.00 in0.0 mm 0.00 in0.0 mm
11:22 AM 77.9°F25.5°C 48.7°F9.3°C 36% 0.9 mph 1.4 kmh 2.0 mph3.2 kmh 29.89 in1012.2 mb - 0.00 in0.0 mm 0.00 in0.0 mm
11:17 AM 77.4°F25.2°C 49.1°F9.5°C 37% 0.9 mph 1.4 kmh -- 29.89 in1012.2 mb - 0.00 in0.0 mm 0.00 in0.0 mm
11:12 AM 76.8°F24.9°C 49.3°F9.6°C 38% 0.9 mph N1.4 kmh N 2.0 mph3.2 kmh 29.89 in1012.2 mb - 0.00 in0.0 mm 0.00 in0.0 mm
11:07 AM 76.3°F24.6°C 49.5°F9.7°C 39% 0.9 mph N1.4 kmh N 2.9 mph4.7 kmh 29.89 in1012.2 mb - 0.00 in0.0 mm 0.00 in0.0 mm
11:02 AM 75.9°F24.4°C 49.1°F9.5°C 39% 0.9 mph N1.4 kmh N -- 29.90 in1012.5 mb - 0.00 in0.0 mm 0.00 in0.0 mm
10:57 AM 75.6°F24.2°C 50.2°F10.1°C 41% Calm Calm 2.9 mph4.7 kmh 29.90 in1012.5 mb - 0.00 in0.0 mm 0.00 in0.0 mm
10:52 AM 74.8°F23.8°C 48.2°F9.0°C 39% 0.9 mph N1.4 kmh N 0.9 mph1.4 kmh 29.90 in1012.5 mb - 0.00 in0.0 mm 0.00 in0.0 mm
10:47 AM 74.7°F23.7°C 48.7°F9.3°C 40% 0.9 mph N1.4 kmh N 0.9 mph1.4 kmh 29.90 in1012.5 mb - 0.00 in0.0 mm 0.00 in0.0 mm
10:42 AM 74.1°F23.4°C 52.0°F11.1°C 46% 0.9 mph N1.4 kmh N 2.9 mph4.7 kmh 29.90 in1012.5 mb - 0.00 in0.0 mm 0.00 in0.0 mm
10:37 AM 73.8°F23.2°C 48.6°F9.2°C 41% 2.0 mph N3.2 kmh N -- 29.91 in1012.9 mb - 0.00 in0.0 mm 0.00 in0.0 mm
10:32 AM 73.4°F23.0°C 49.5°F9.7°C 43% 2.0 mph N3.2 kmh N -- 29.91 in1012.9 mb - 0.00 in0.0 mm 0.00 in0.0 mm
10:27 AM 72.9°F22.7°C 48.4°F9.1°C 42% 0.9 mph 1.4 kmh 0.9 mph1.4 kmh 29.91 in1012.9 mb - 0.00 in0.0 mm 0.00 in0.0 mm
10:22 AM 72.9°F22.7°C 49.1°F9.5°C 43% Calm Calm -- 29.91 in1012.9 mb - 0.00 in0.0 mm 0.00 in0.0 mm
10:17 AM 72.7°F22.6°C 48.9°F9.4°C 43% Calm Calm 0.9 mph1.4 kmh 29.91 in1012.9 mb - 0.00 in0.0 mm 0.00 in0.0 mm
10:12 AM 72.1°F22.3°C 47.8°F8.8°C 42% 0.9 mph N1.4 kmh N -- 29.91 in1012.9 mb - 0.00 in0.0 mm 0.00 in0.0 mm
10:07 AM 71.8°F22.1°C 48.0°F8.9°C 43% 0.9 mph N1.4 kmh N 2.0 mph3.2 kmh 29.91 in1012.9 mb - 0.00 in0.0 mm 0.00 in0.0 mm
10:02 AM 71.2°F21.8°C 47.7°F8.7°C 43% 0.9 mph N1.4 kmh N -- 29.91 in1012.9 mb - 0.00 in0.0 mm 0.00 in0.0 mm
09:57 AM 70.9°F21.6°C 48.6°F9.2°C 45% 0.9 mph NNE1.4 kmh NNE -- 29.91 in1012.9 mb - 0.00 in0.0 mm 0.00 in0.0 mm
09:52 AM 70.3°F21.3°C 46.8°F8.2°C 43% 0.9 mph NNE1.4 kmh NNE -- 29.92 in1013.2 mb - 0.00 in0.0 mm 0.00 in0.0 mm
09:47 AM 69.8°F21.0°C 48.0°F8.9°C 46% Calm Calm 0.9 mph1.4 kmh 29.91 in1012.9 mb - 0.00 in0.0 mm 0.00 in0.0 mm
09:42 AM 69.3°F20.7°C 46.9°F8.3°C 45% Calm Calm -- 29.92 in1013.2 mb - 0.00 in0.0 mm 0.00 in0.0 mm
09:37 AM 69.1°F20.6°C 47.5°F8.6°C 46% Calm Calm 0.9 mph1.4 kmh 29.92 in1013.2 mb - 0.00 in0.0 mm 0.00 in0.0 mm
09:32 AM 68.5°F20.3°C 48.0°F8.9°C 48% Calm Calm -- 29.92 in1013.2 mb - 0.00 in0.0 mm 0.00 in0.0 mm
09:27 AM 68.2°F20.1°C 47.1°F8.4°C 47% Calm Calm -- 29.92 in1013.2 mb - 0.00 in0.0 mm 0.00 in0.0 mm
09:22 AM 67.6°F19.8°C 47.8°F8.8°C 49% Calm Calm 0.9 mph1.4 kmh 29.92 in1013.2 mb - 0.00 in0.0 mm 0.00 in0.0 mm
09:17 AM 66.9°F19.4°C 47.7°F8.7°C 50% 0.9 mph NNE1.4 kmh NNE -- 29.92 in1013.2 mb - 0.00 in0.0 mm 0.00 in0.0 mm
09:12 AM 66.2°F19.0°C 49.1°F9.5°C 54% 0.9 mph NNE1.4 kmh NNE -- 29.92 in1013.2 mb - 0.00 in0.0 mm 0.00 in0.0 mm
09:07 AM 65.7°F18.7°C 48.0°F8.9°C 53% 0.9 mph NNE1.4 kmh NNE 0.9 mph1.4 kmh 29.93 in1013.5 mb - 0.00 in0.0 mm 0.00 in0.0 mm
09:02 AM 65.5°F18.6°C 47.5°F8.6°C 52% Calm Calm 2.0 mph3.2 kmh 29.93 in1013.5 mb - 0.00 in0.0 mm 0.00 in0.0 mm
08:57 AM 65.5°F18.6°C 47.5°F8.6°C 52% 0.9 mph NNE1.4 kmh NNE -- 29.93 in1013.5 mb - 0.00 in0.0 mm 0.00 in0.0 mm
08:52 AM 65.1°F18.4°C 48.6°F9.2°C 55% 0.9 mph NNE1.4 kmh NNE 0.9 mph1.4 kmh 29.93 in1013.5 mb - 0.00 in0.0 mm 0.00 in0.0 mm
08:47 AM 64.2°F17.9°C 47.7°F8.7°C 55% 0.9 mph ENE1.4 kmh ENE 2.0 mph3.2 kmh 29.93 in1013.5 mb - 0.00 in0.0 mm 0.00 in0.0 mm
08:42 AM 63.9°F17.7°C 47.3°F8.5°C 55% Calm Calm -- 29.93 in1013.5 mb - 0.00 in0.0 mm 0.00 in0.0 mm
08:37 AM 63.3°F17.4°C 47.3°F8.5°C 56% Calm Calm -- 29.93 in1013.5 mb - 0.00 in0.0 mm 0.00 in0.0 mm
08:32 AM 63.0°F17.2°C 48.0°F8.9°C 58% Calm Calm -- 29.93 in1013.5 mb - 0.00 in0.0 mm 0.00 in0.0 mm
08:27 AM 62.8°F17.1°C 47.3°F8.5°C 57% Calm Calm 0.9 mph1.4 kmh 29.93 in1013.5 mb - 0.00 in0.0 mm 0.00 in0.0 mm
08:22 AM 62.2°F16.8°C 47.7°F8.7°C 59% 0.9 mph E1.4 kmh E -- 29.93 in1013.5 mb - 0.00 in0.0 mm 0.00 in0.0 mm
08:17 AM 61.9°F16.6°C 47.8°F8.8°C 60% 0.9 mph E1.4 kmh E -- 29.93 in1013.5 mb - 0.00 in0.0 mm 0.00 in0.0 mm
08:12 AM 61.7°F16.5°C 47.7°F8.7°C 60% 0.9 mph E1.4 kmh E -- 29.93 in1013.5 mb - 0.00 in0.0 mm 0.00 in0.0 mm
08:07 AM 61.3°F16.3°C 46.4°F8.0°C 58% 0.9 mph E1.4 kmh E 2.0 mph3.2 kmh 29.94 in1013.9 mb - 0.00 in0.0 mm 0.00 in0.0 mm
08:02 AM 61.2°F16.2°C 46.2°F7.9°C 58% Calm Calm 0.9 mph1.4 kmh 29.93 in1013.5 mb - 0.00 in0.0 mm 0.00 in0.0 mm
07:57 AM 60.6°F15.9°C 46.6°F8.1°C 60% Calm Calm -- 29.94 in1013.9 mb - 0.00 in0.0 mm 0.00 in0.0 mm
07:52 AM 60.1°F15.6°C 46.2°F7.9°C 60% Calm Calm -- 29.94 in1013.9 mb - 0.00 in0.0 mm 0.00 in0.0 mm
07:47 AM 59.4°F15.2°C 45.9°F7.7°C 61% 0.9 mph S1.4 kmh S -- 29.94 in1013.9 mb - 0.00 in0.0 mm 0.00 in0.0 mm
07:42 AM 59.2°F15.1°C 45.7°F7.6°C 61% 0.9 mph S1.4 kmh S -- 29.94 in1013.9 mb - 0.00 in0.0 mm 0.00 in0.0 mm
07:37 AM 58.8°F14.9°C 45.9°F7.7°C 62% 0.9 mph S1.4 kmh S 0.9 mph1.4 kmh 29.94 in1013.9 mb - 0.00 in0.0 mm 0.00 in0.0 mm
07:32 AM 58.3°F14.6°C 46.2°F7.9°C 64% Calm Calm 0.9 mph1.4 kmh 29.94 in1013.9 mb - 0.00 in0.0 mm 0.00 in0.0 mm
07:27 AM 57.4°F14.1°C 46.0°F7.8°C 66% Calm Calm 0.9 mph1.4 kmh 29.94 in1013.9 mb - 0.00 in0.0 mm 0.00 in0.0 mm
07:22 AM 56.7°F13.7°C 45.0°F7.2°C 65% Calm Calm -- 29.94 in1013.9 mb - 0.00 in0.0 mm 0.00 in0.0 mm
07:17 AM 55.9°F13.3°C 45.9°F7.7°C 69% Calm Calm -- 29.94 in1013.9 mb - 0.00 in0.0 mm 0.00 in0.0 mm
07:12 AM 55.4°F13.0°C 45.0°F7.2°C 68% Calm Calm -- 29.94 in1013.9 mb - 0.00 in0.0 mm 0.00 in0.0 mm
07:07 AM 54.7°F12.6°C 45.1°F7.3°C 70% Calm Calm -- 29.94 in1013.9 mb - 0.00 in0.0 mm 0.00 in0.0 mm
07:02 AM 54.1°F12.3°C 45.3°F7.4°C 72% Calm Calm -- 29.94 in1013.9 mb - 0.00 in0.0 mm 0.00 in0.0 mm
06:57 AM 53.1°F11.7°C 45.0°F7.2°C 74% Calm Calm -- 29.94 in1013.9 mb - 0.00 in0.0 mm 0.00 in0.0 mm
06:52 AM 52.0°F11.1°C 45.0°F7.2°C 77% Calm Calm -- 29.94 in1013.9 mb - 0.00 in0.0 mm 0.00 in0.0 mm
06:47 AM 51.1°F10.6°C 44.8°F7.1°C 79% Calm Calm -- 29.94 in1013.9 mb - 0.00 in0.0 mm 0.00 in0.0 mm
06:42 AM 50.4°F10.2°C 44.4°F6.9°C 80% Calm Calm -- 29.93 in1013.5 mb - 0.00 in0.0 mm 0.00 in0.0 mm
06:37 AM 49.6°F9.8°C 44.1°F6.7°C 81% Calm Calm -- 29.94 in1013.9 mb - 0.00 in0.0 mm 0.00 in0.0 mm
06:32 AM 49.3°F9.6°C 44.1°F6.7°C 82% 0.9 mph S1.4 kmh S -- 29.94 in1013.9 mb - 0.00 in0.0 mm 0.00 in0.0 mm
06:27 AM 48.7°F9.3°C 44.1°F6.7°C 84% 2.0 mph S3.2 kmh S 0.9 mph1.4 kmh 29.94 in1013.9 mb - 0.00 in0.0 mm 0.00 in0.0 mm
06:22 AM 48.0°F8.9°C 43.7°F6.5°C 85% 0.9 mph S1.4 kmh S 2.0 mph3.2 kmh 29.94 in1013.9 mb - 0.00 in0.0 mm 0.00 in0.0 mm
06:17 AM 47.5°F8.6°C 43.5°F6.4°C 86% 0.9 mph S1.4 kmh S -- 29.94 in1013.9 mb - 0.00 in0.0 mm 0.00 in0.0 mm
06:12 AM 46.9°F8.3°C 43.0°F6.1°C 86% 0.9 mph S1.4 kmh S 0.9 mph1.4 kmh 29.94 in1013.9 mb - 0.00 in0.0 mm 0.00 in0.0 mm
06:07 AM 46.4°F8.0°C 42.4°F5.8°C 86% 2.0 mph S3.2 kmh S -- 29.94 in1013.9 mb - 0.00 in0.0 mm 0.00 in0.0 mm
06:02 AM 46.0°F7.8°C 42.4°F5.8°C 87% 2.9 mph S4.7 kmh S 0.9 mph1.4 kmh 29.94 in1013.9 mb - 0.00 in0.0 mm 0.00 in0.0 mm
05:57 AM 45.7°F7.6°C 42.1°F5.6°C 87% 2.9 mph S4.7 kmh S 2.0 mph3.2 kmh 29.93 in1013.5 mb - 0.00 in0.0 mm 0.00 in0.0 mm
05:52 AM 45.1°F7.3°C 41.7°F5.4°C 88% 2.9 mph S4.7 kmh S 2.9 mph4.7 kmh 29.93 in1013.5 mb - 0.00 in0.0 mm 0.00 in0.0 mm
05:47 AM 45.0°F7.2°C 41.5°F5.3°C 88% 2.9 mph SSE4.7 kmh SSE 2.9 mph4.7 kmh 29.93 in1013.5 mb - 0.00 in0.0 mm 0.00 in0.0 mm
05:42 AM 44.8°F7.1°C 41.4°F5.2°C 88% 2.0 mph SSE3.2 kmh SSE 2.0 mph3.2 kmh 29.93 in1013.5 mb - 0.00 in0.0 mm 0.00 in0.0 mm
05:37 AM 44.8°F7.1°C 41.4°F5.2°C 88% 2.9 mph SSE4.7 kmh SSE -- 29.93 in1013.5 mb - 0.00 in0.0 mm 0.00 in0.0 mm
05:32 AM 44.8°F7.1°C 41.7°F5.4°C 89% 4.0 mph SSE6.4 kmh SSE 4.0 mph6.4 kmh 29.93 in1013.5 mb - 0.00 in0.0 mm 0.00 in0.0 mm
05:27 AM 44.8°F7.1°C 41.7°F5.4°C 89% 4.0 mph SSE6.4 kmh SSE 4.9 mph7.9 kmh 29.93 in1013.5 mb - 0.00 in0.0 mm 0.00 in0.0 mm
05:22 AM 44.8°F7.1°C 41.4°F5.2°C 88% 4.0 mph S6.4 kmh S 4.0 mph6.4 kmh 29.93 in1013.5 mb - 0.00 in0.0 mm 0.00 in0.0 mm
05:17 AM 45.0°F7.2°C 41.5°F5.3°C 88% 4.0 mph S6.4 kmh S 4.9 mph7.9 kmh 29.93 in1013.5 mb - 0.00 in0.0 mm 0.00 in0.0 mm
05:12 AM 45.1°F7.3°C 41.7°F5.4°C 88% 4.0 mph S6.4 kmh S 2.9 mph4.7 kmh 29.93 in1013.5 mb - 0.00 in0.0 mm 0.00 in0.0 mm
05:07 AM 45.3°F7.4°C 41.4°F5.2°C 86% 2.0 mph S3.2 kmh S 6.0 mph9.7 kmh 29.93 in1013.5 mb - 0.00 in0.0 mm 0.00 in0.0 mm
05:02 AM 45.7°F7.6°C 41.7°F5.4°C 86% 0.9 mph SSE1.4 kmh SSE 0.9 mph1.4 kmh 29.92 in1013.2 mb - 0.00 in0.0 mm 0.00 in0.0 mm
04:57 AM 46.0°F7.8°C 42.1°F5.6°C 86% Calm Calm 2.0 mph3.2 kmh 29.91 in1012.9 mb - 0.00 in0.0 mm 0.00 in0.0 mm
04:52 AM 46.2°F7.9°C 42.3°F5.7°C 86% Calm Calm -- 29.91 in1012.9 mb - 0.00 in0.0 mm 0.00 in0.0 mm
04:47 AM 46.6°F8.1°C 42.6°F5.9°C 86% Calm Calm -- 29.92 in1013.2 mb - 0.00 in0.0 mm 0.00 in0.0 mm
04:42 AM 46.6°F8.1°C 42.6°F5.9°C 86% Calm Calm -- 29.91 in1012.9 mb - 0.00 in0.0 mm 0.00 in0.0 mm
04:37 AM 46.6°F8.1°C 42.6°F5.9°C 86% Calm Calm -- 29.91 in1012.9 mb - 0.00 in0.0 mm 0.00 in0.0 mm
04:32 AM 46.8°F8.2°C 42.8°F6.0°C 86% Calm Calm -- 29.91 in1012.9 mb - 0.00 in0.0 mm 0.00 in0.0 mm
04:27 AM 46.8°F8.2°C 42.8°F6.0°C 86% Calm Calm -- 29.91 in1012.9 mb - 0.00 in0.0 mm 0.00 in0.0 mm
04:22 AM 46.6°F8.1°C 43.0°F6.1°C 87% Calm Calm -- 29.91 in1012.9 mb - 0.00 in0.0 mm 0.00 in0.0 mm
04:17 AM 46.4°F8.0°C 42.8°F6.0°C 87% 0.9 mph SSE1.4 kmh SSE -- 29.91 in1012.9 mb - 0.00 in0.0 mm 0.00 in0.0 mm
04:12 AM 46.0°F7.8°C 42.6°F5.9°C 88% Calm Calm -- 29.92 in1013.2 mb - 0.00 in0.0 mm 0.00 in0.0 mm
04:07 AM 45.9°F7.7°C 42.3°F5.7°C 87% Calm Calm -- 29.92 in1013.2 mb - 0.00 in0.0 mm 0.00 in0.0 mm
04:02 AM 45.9°F7.7°C 42.3°F5.7°C 87% Calm Calm -- 29.92 in1013.2 mb - 0.00 in0.0 mm 0.00 in0.0 mm
03:57 AM 45.9°F7.7°C 41.9°F5.5°C 86% Calm Calm -- 29.91 in1012.9 mb - 0.00 in0.0 mm 0.00 in0.0 mm
03:52 AM 45.9°F7.7°C 41.9°F5.5°C 86% Calm Calm -- 29.91 in1012.9 mb - 0.00 in0.0 mm 0.00 in0.0 mm
03:47 AM 46.0°F7.8°C 42.1°F5.6°C 86% 0.9 mph SSE1.4 kmh SSE -- 29.91 in1012.9 mb - 0.00 in0.0 mm 0.00 in0.0 mm
03:42 AM 46.2°F7.9°C 41.9°F5.5°C 85% 2.0 mph SSE3.2 kmh SSE -- 29.91 in1012.9 mb - 0.00 in0.0 mm 0.00 in0.0 mm
03:37 AM 46.2°F7.9°C 41.9°F5.5°C 85% 2.0 mph SSE3.2 kmh SSE -- 29.91 in1012.9 mb - 0.00 in0.0 mm 0.00 in0.0 mm
03:32 AM 46.4°F8.0°C 42.1°F5.6°C 85% 0.9 mph SSE1.4 kmh SSE 4.0 mph6.4 kmh 29.91 in1012.9 mb - 0.00 in0.0 mm 0.00 in0.0 mm
03:27 AM 46.6°F8.1°C 42.1°F5.6°C 84% Calm Calm -- 29.90 in1012.5 mb - 0.00 in0.0 mm 0.00 in0.0 mm
03:22 AM 46.9°F8.3°C 42.4°F5.8°C 84% Calm Calm -- 29.91 in1012.9 mb - 0.00 in0.0 mm 0.00 in0.0 mm
03:17 AM 46.9°F8.3°C 42.4°F5.8°C 84% Calm Calm -- 29.91 in1012.9 mb - 0.00 in0.0 mm 0.00 in0.0 mm
03:12 AM 47.1°F8.4°C 42.6°F5.9°C 84% Calm Calm -- 29.91 in1012.9 mb - 0.00 in0.0 mm 0.00 in0.0 mm
03:07 AM 47.1°F8.4°C 42.6°F5.9°C 84% Calm Calm -- 29.91 in1012.9 mb - 0.00 in0.0 mm 0.00 in0.0 mm
03:02 AM 46.9°F8.3°C 42.4°F5.8°C 84% Calm Calm -- 29.91 in1012.9 mb - 0.00 in0.0 mm 0.00 in0.0 mm
02:57 AM 47.1°F8.4°C 42.6°F5.9°C 84% Calm Calm -- 29.91 in1012.9 mb - 0.00 in0.0 mm 0.00 in0.0 mm
02:52 AM 47.1°F8.4°C 42.6°F5.9°C 84% Calm Calm -- 29.91 in1012.9 mb - 0.00 in0.0 mm 0.00 in0.0 mm
02:47 AM 47.1°F8.4°C 42.6°F5.9°C 84% Calm Calm -- 29.91 in1012.9 mb - 0.00 in0.0 mm 0.00 in0.0 mm
02:42 AM 47.1°F8.4°C 42.6°F5.9°C 84% 0.9 mph SE1.4 kmh SE -- 29.91 in1012.9 mb - 0.00 in0.0 mm 0.00 in0.0 mm
02:37 AM 46.9°F8.3°C 42.4°F5.8°C 84% 2.0 mph SE3.2 kmh SE -- 29.91 in1012.9 mb - 0.00 in0.0 mm 0.00 in0.0 mm
02:32 AM 46.9°F8.3°C 42.1°F5.6°C 83% 2.9 mph SE4.7 kmh SE 2.0 mph3.2 kmh 29.91 in1012.9 mb - 0.00 in0.0 mm 0.00 in0.0 mm
02:27 AM 47.1°F8.4°C 42.3°F5.7°C 83% 2.9 mph SE4.7 kmh SE 2.9 mph4.7 kmh 29.91 in1012.9 mb - 0.00 in0.0 mm 0.00 in0.0 mm
02:22 AM 47.1°F8.4°C 42.3°F5.7°C 83% 4.0 mph SE6.4 kmh SE 4.0 mph6.4 kmh 29.91 in1012.9 mb - 0.00 in0.0 mm 0.00 in0.0 mm
02:17 AM 47.1°F8.4°C 42.3°F5.7°C 83% 4.0 mph SE6.4 kmh SE 2.9 mph4.7 kmh 29.91 in1012.9 mb - 0.00 in0.0 mm 0.00 in0.0 mm
02:12 AM 47.1°F8.4°C 41.9°F5.5°C 82% 4.0 mph SSE6.4 kmh SSE 2.9 mph4.7 kmh 29.91 in1012.9 mb - 0.00 in0.0 mm 0.00 in0.0 mm
02:07 AM 47.3°F8.5°C 41.7°F5.4°C 81% 4.0 mph SSE6.4 kmh SSE 4.0 mph6.4 kmh 29.91 in1012.9 mb - 0.00 in0.0 mm 0.00 in0.0 mm
02:02 AM 47.7°F8.7°C 41.7°F5.4°C 80% 4.0 mph SE6.4 kmh SE 4.0 mph6.4 kmh 29.91 in1012.9 mb - 0.00 in0.0 mm 0.00 in0.0 mm
01:57 AM 48.0°F8.9°C 41.9°F5.5°C 79% 2.9 mph SE4.7 kmh SE 4.0 mph6.4 kmh 29.91 in1012.9 mb - 0.00 in0.0 mm 0.00 in0.0 mm
01:52 AM 48.6°F9.2°C 42.1°F5.6°C 78% 0.9 mph SE1.4 kmh SE 2.9 mph4.7 kmh 29.91 in1012.9 mb - 0.00 in0.0 mm 0.00 in0.0 mm
01:47 AM 49.1°F9.5°C 42.6°F5.9°C 78% Calm Calm 2.0 mph3.2 kmh 29.90 in1012.5 mb - 0.00 in0.0 mm 0.00 in0.0 mm
01:42 AM 49.5°F9.7°C 42.8°F6.0°C 78% Calm Calm -- 29.91 in1012.9 mb - 0.00 in0.0 mm 0.00 in0.0 mm
01:37 AM 49.6°F9.8°C 42.8°F6.0°C 77% Calm Calm -- 29.91 in1012.9 mb - 0.00 in0.0 mm 0.00 in0.0 mm
01:32 AM 50.0°F10.0°C 43.2°F6.2°C 77% Calm Calm -- 29.90 in1012.5 mb - 0.00 in0.0 mm 0.00 in0.0 mm
01:27 AM 50.2°F10.1°C 43.3°F6.3°C 77% Calm Calm -- 29.90 in1012.5 mb - 0.00 in0.0 mm 0.00 in0.0 mm
01:22 AM 50.4°F10.2°C 43.2°F6.2°C 76% Calm Calm -- 29.90 in1012.5 mb - 0.00 in0.0 mm 0.00 in0.0 mm
01:17 AM 50.5°F10.3°C 43.3°F6.3°C 76% Calm Calm -- 29.90 in1012.5 mb - 0.00 in0.0 mm 0.00 in0.0 mm
01:12 AM 50.7°F10.4°C 43.5°F6.4°C 76% Calm Calm -- 29.90 in1012.5 mb - 0.00 in0.0 mm 0.00 in0.0 mm
01:07 AM 50.7°F10.4°C 43.5°F6.4°C 76% Calm Calm -- 29.90 in1012.5 mb - 0.00 in0.0 mm 0.00 in0.0 mm
01:02 AM 50.7°F10.4°C 43.2°F6.2°C 75% Calm Calm -- 29.90 in1012.5 mb - 0.00 in0.0 mm 0.00 in0.0 mm
12:57 AM 50.9°F10.5°C 43.5°F6.4°C 76% Calm Calm -- 29.90 in1012.5 mb - 0.00 in0.0 mm 0.00 in0.0 mm
12:52 AM 50.9°F10.5°C 43.5°F6.4°C 76% Calm Calm -- 29.90 in1012.5 mb - 0.00 in0.0 mm 0.00 in0.0 mm
12:47 AM 50.7°F10.4°C 43.5°F6.4°C 76% Calm Calm -- 29.91 in1012.9 mb - 0.00 in0.0 mm 0.00 in0.0 mm
12:42 AM 50.9°F10.5°C 43.5°F6.4°C 76% Calm Calm -- 29.91 in1012.9 mb - 0.00 in0.0 mm 0.00 in0.0 mm
12:37 AM 51.1°F10.6°C 43.7°F6.5°C 76% Calm Calm -- 29.91 in1012.9 mb - 0.00 in0.0 mm 0.00 in0.0 mm
12:32 AM 51.3°F10.7°C 43.5°F6.4°C 75% Calm Calm -- 29.91 in1012.9 mb - 0.00 in0.0 mm 0.00 in0.0 mm
12:27 AM 51.4°F10.8°C 43.7°F6.5°C 75% Calm Calm -- 29.91 in1012.9 mb - 0.00 in0.0 mm 0.00 in0.0 mm
12:22 AM 51.4°F10.8°C 43.5°F6.4°C 74% Calm Calm -- 29.90 in1012.5 mb - 0.00 in0.0 mm 0.00 in0.0 mm
12:17 AM 51.6°F10.9°C 43.3°F6.3°C 73% Calm Calm -- 29.91 in1012.9 mb - 0.00 in0.0 mm 0.00 in0.0 mm
12:12 AM 52.0°F11.1°C 43.2°F6.2°C 72% Calm Calm -- 29.90 in1012.5 mb - 0.00 in0.0 mm 0.00 in0.0 mm
12:07 AM 52.2°F11.2°C 43.3°F6.3°C 72% Calm Calm -- 29.91 in1012.9 mb - 0.00 in0.0 mm 0.00 in0.0 mm
12:02 AM 52.3°F11.3°C 43.2°F6.2°C 71% Calm Calm -- 29.90 in1012.5 mb - 0.00 in0.0 mm 0.00 in0.0 mm